sensor_id;sensor_type;location;lat;lon;timestamp;temperature;humidity
76211;DHT22;65003;49.518;11.280;2023-07-09T00:00:47;19.30;78.50
76211;DHT22;65003;49.518;11.280;2023-07-09T00:03:14;19.20;78.60
76211;DHT22;65003;49.518;11.280;2023-07-09T00:05:40;19.20;79.60
76211;DHT22;65003;49.518;11.280;2023-07-09T00:08:12;19.20;79.00
76211;DHT22;65003;49.518;11.280;2023-07-09T00:10:33;19.30;79.10
76211;DHT22;65003;49.518;11.280;2023-07-09T00:13:00;19.40;78.90
76211;DHT22;65003;49.518;11.280;2023-07-09T00:15:26;19.50;78.30
76211;DHT22;65003;49.518;11.280;2023-07-09T00:17:53;19.80;77.30
76211;DHT22;65003;49.518;11.280;2023-07-09T00:20:20;20.00;76.40
76211;DHT22;65003;49.518;11.280;2023-07-09T00:22:46;20.00;76.10
76211;DHT22;65003;49.518;11.280;2023-07-09T00:25:13;20.00;76.20
76211;DHT22;65003;49.518;11.280;2023-07-09T00:27:40;19.70;76.60
76211;DHT22;65003;49.518;11.280;2023-07-09T00:30:10;19.70;77.00
76211;DHT22;65003;49.518;11.280;2023-07-09T00:32:33;19.60;77.10
76211;DHT22;65003;49.518;11.280;2023-07-09T00:35:00;19.50;77.80
76211;DHT22;65003;49.518;11.280;2023-07-09T00:37:26;19.20;79.20
76211;DHT22;65003;49.518;11.280;2023-07-09T00:39:53;19.00;80.00
76211;DHT22;65003;49.518;11.280;2023-07-09T00:42:21;18.90;80.80
76211;DHT22;65003;49.518;11.280;2023-07-09T00:44:47;18.80;81.10
76211;DHT22;65003;49.518;11.280;2023-07-09T00:47:21;18.70;81.40
76211;DHT22;65003;49.518;11.280;2023-07-09T00:49:48;18.70;81.70
76211;DHT22;65003;49.518;11.280;2023-07-09T00:52:21;18.70;82.10
76211;DHT22;65003;49.518;11.280;2023-07-09T00:54:44;18.70;84.10
76211;DHT22;65003;49.518;11.280;2023-07-09T00:57:12;18.70;90.80
76211;DHT22;65003;49.518;11.280;2023-07-09T00:59:38;18.50;82.90
76211;DHT22;65003;49.518;11.280;2023-07-09T01:02:05;18.50;83.20
76211;DHT22;65003;49.518;11.280;2023-07-09T01:04:32;18.40;83.30
76211;DHT22;65003;49.518;11.280;2023-07-09T01:06:58;18.40;83.40
76211;DHT22;65003;49.518;11.280;2023-07-09T01:09:25;18.40;83.50
76211;DHT22;65003;49.518;11.280;2023-07-09T01:11:52;18.40;83.50
76211;DHT22;65003;49.518;11.280;2023-07-09T01:14:19;18.40;83.80
76211;DHT22;65003;49.518;11.280;2023-07-09T01:16:47;18.40;83.70
76211;DHT22;65003;49.518;11.280;2023-07-09T01:19:13;18.30;84.10
76211;DHT22;65003;49.518;11.280;2023-07-09T01:21:40;18.30;83.80
76211;DHT22;65003;49.518;11.280;2023-07-09T01:26:36;18.20;83.70
76211;DHT22;65003;49.518;11.280;2023-07-09T01:29:02;18.20;84.70
76211;DHT22;65003;49.518;11.280;2023-07-09T01:31:29;18.10;85.20
76211;DHT22;65003;49.518;11.280;2023-07-09T01:33:56;18.10;85.70
76211;DHT22;65003;49.518;11.280;2023-07-09T01:36:22;18.10;85.30
76211;DHT22;65003;49.518;11.280;2023-07-09T01:38:49;18.20;84.90
76211;DHT22;65003;49.518;11.280;2023-07-09T01:41:16;18.20;84.70
76211;DHT22;65003;49.518;11.280;2023-07-09T01:43:42;18.20;84.90
76211;DHT22;65003;49.518;11.280;2023-07-09T01:46:09;18.10;84.80
76211;DHT22;65003;49.518;11.280;2023-07-09T01:48:35;18.00;85.10
76211;DHT22;65003;49.518;11.280;2023-07-09T01:51:03;18.00;85.40
76211;DHT22;65003;49.518;11.280;2023-07-09T01:53:29;17.90;85.50
76211;DHT22;65003;49.518;11.280;2023-07-09T01:55:56;17.90;85.80
76211;DHT22;65003;49.518;11.280;2023-07-09T01:58:22;18.00;85.60
76211;DHT22;65003;49.518;11.280;2023-07-09T02:00:49;18.00;85.80
76211;DHT22;65003;49.518;11.280;2023-07-09T02:03:16;17.90;85.70
76211;DHT22;65003;49.518;11.280;2023-07-09T02:05:43;17.90;85.90
76211;DHT22;65003;49.518;11.280;2023-07-09T02:08:10;18.00;85.90
76211;DHT22;65003;49.518;11.280;2023-07-09T02:10:36;18.10;85.00
76211;DHT22;65003;49.518;11.280;2023-07-09T02:13:03;18.10;84.80
76211;DHT22;65003;49.518;11.280;2023-07-09T02:15:29;18.10;84.90
76211;DHT22;65003;49.518;11.280;2023-07-09T02:17:56;18.00;84.70
76211;DHT22;65003;49.518;11.280;2023-07-09T02:20:23;18.00;85.10
76211;DHT22;65003;49.518;11.280;2023-07-09T02:22:49;17.90;85.30
76211;DHT22;65003;49.518;11.280;2023-07-09T02:25:16;17.90;85.30
76211;DHT22;65003;49.518;11.280;2023-07-09T02:27:43;17.80;85.50
76211;DHT22;65003;49.518;11.280;2023-07-09T02:30:09;17.80;85.80
76211;DHT22;65003;49.518;11.280;2023-07-09T02:32:36;18.00;85.50
76211;DHT22;65003;49.518;11.280;2023-07-09T02:35:02;18.00;85.00
76211;DHT22;65003;49.518;11.280;2023-07-09T02:37:29;18.00;85.00
76211;DHT22;65003;49.518;11.280;2023-07-09T02:39:56;17.90;85.20
76211;DHT22;65003;49.518;11.280;2023-07-09T02:42:22;17.70;85.60
76211;DHT22;65003;49.518;11.280;2023-07-09T02:44:49;17.70;86.00
76211;DHT22;65003;49.518;11.280;2023-07-09T02:47:16;17.60;86.10
76211;DHT22;65003;49.518;11.280;2023-07-09T02:49:42;17.60;86.10
76211;DHT22;65003;49.518;11.280;2023-07-09T02:52:09;17.50;86.40
76211;DHT22;65003;49.518;11.280;2023-07-09T02:54:36;17.50;88.10
76211;DHT22;65003;49.518;11.280;2023-07-09T02:57:02;17.50;87.10
76211;DHT22;65003;49.518;11.280;2023-07-09T02:59:30;17.40;87.20
76211;DHT22;65003;49.518;11.280;2023-07-09T03:01:56;17.40;87.70
76211;DHT22;65003;49.518;11.280;2023-07-09T03:04:23;17.30;87.70
76211;DHT22;65003;49.518;11.280;2023-07-09T03:06:52;17.30;87.80
76211;DHT22;65003;49.518;11.280;2023-07-09T03:09:19;17.30;87.90
76211;DHT22;65003;49.518;11.280;2023-07-09T03:11:46;17.30;88.10
76211;DHT22;65003;49.518;11.280;2023-07-09T03:14:13;17.30;88.00
76211;DHT22;65003;49.518;11.280;2023-07-09T03:16:40;17.30;88.10
76211;DHT22;65003;49.518;11.280;2023-07-09T03:19:06;17.30;88.30
76211;DHT22;65003;49.518;11.280;2023-07-09T03:21:33;17.20;88.60
76211;DHT22;65003;49.518;11.280;2023-07-09T03:24:00;17.10;88.70
76211;DHT22;65003;49.518;11.280;2023-07-09T03:26:26;17.10;88.80
76211;DHT22;65003;49.518;11.280;2023-07-09T03:28:53;17.10;88.90
76211;DHT22;65003;49.518;11.280;2023-07-09T03:31:19;17.10;94.20
76211;DHT22;65003;49.518;11.280;2023-07-09T03:33:47;17.10;91.10
76211;DHT22;65003;49.518;11.280;2023-07-09T03:36:13;17.00;89.40
76211;DHT22;65003;49.518;11.280;2023-07-09T03:38:40;17.00;89.30
76211;DHT22;65003;49.518;11.280;2023-07-09T03:41:06;17.00;89.40
76211;DHT22;65003;49.518;11.280;2023-07-09T03:43:33;17.00;89.40
76211;DHT22;65003;49.518;11.280;2023-07-09T03:46:00;17.00;89.70
76211;DHT22;65003;49.518;11.280;2023-07-09T03:48:27;17.00;90.50
76211;DHT22;65003;49.518;11.280;2023-07-09T03:50:54;16.90;89.70
76211;DHT22;65003;49.518;11.280;2023-07-09T03:53:20;16.90;89.80
76211;DHT22;65003;49.518;11.280;2023-07-09T03:55:51;17.00;90.00
76211;DHT22;65003;49.518;11.280;2023-07-09T03:58:14;16.30;89.50
76211;DHT22;65003;49.518;11.280;2023-07-09T04:00:40;17.00;89.90
76211;DHT22;65003;49.518;11.280;2023-07-09T04:03:07;17.10;90.00
76211;DHT22;65003;49.518;11.280;2023-07-09T04:05:33;17.20;99.90
76211;DHT22;65003;49.518;11.280;2023-07-09T04:08:00;17.30;92.20
76211;DHT22;65003;49.518;11.280;2023-07-09T04:10:26;17.50;92.30
76211;DHT22;65003;49.518;11.280;2023-07-09T04:12:53;17.60;90.80
76211;DHT22;65003;49.518;11.280;2023-07-09T04:15:21;17.70;88.50
76211;DHT22;65003;49.518;11.280;2023-07-09T04:17:46;17.70;86.90
76211;DHT22;65003;49.518;11.280;2023-07-09T04:20:13;17.60;86.80
76211;DHT22;65003;49.518;11.280;2023-07-09T04:22:40;17.60;87.00
76211;DHT22;65003;49.518;11.280;2023-07-09T04:25:07;17.60;86.90
76211;DHT22;65003;49.518;11.280;2023-07-09T04:27:33;17.60;86.90
76211;DHT22;65003;49.518;11.280;2023-07-09T04:30:00;17.60;86.90
76211;DHT22;65003;49.518;11.280;2023-07-09T04:32:26;17.60;87.00
76211;DHT22;65003;49.518;11.280;2023-07-09T04:34:53;17.70;87.30
76211;DHT22;65003;49.518;11.280;2023-07-09T04:37:20;17.90;88.90
76211;DHT22;65003;49.518;11.280;2023-07-09T04:39:47;17.90;95.50
76211;DHT22;65003;49.518;11.280;2023-07-09T04:42:14;17.90;87.50
76211;DHT22;65003;49.518;11.280;2023-07-09T04:44:40;17.90;88.90
76211;DHT22;65003;49.518;11.280;2023-07-09T04:47:07;18.00;85.50
76211;DHT22;65003;49.518;11.280;2023-07-09T04:49:34;18.10;85.00
76211;DHT22;65003;49.518;11.280;2023-07-09T04:52:00;18.20;84.60
76211;DHT22;65003;49.518;11.280;2023-07-09T04:54:27;18.30;84.20
76211;DHT22;65003;49.518;11.280;2023-07-09T04:56:54;18.30;83.40
76211;DHT22;65003;49.518;11.280;2023-07-09T04:59:20;18.30;83.20
76211;DHT22;65003;49.518;11.280;2023-07-09T05:01:47;18.40;83.00
76211;DHT22;65003;49.518;11.280;2023-07-09T05:04:13;18.50;82.70
76211;DHT22;65003;49.518;11.280;2023-07-09T05:06:40;18.50;82.60
76211;DHT22;65003;49.518;11.280;2023-07-09T05:09:07;18.60;82.10
76211;DHT22;65003;49.518;11.280;2023-07-09T05:11:34;18.70;82.10
76211;DHT22;65003;49.518;11.280;2023-07-09T05:14:01;18.80;81.30
76211;DHT22;65003;49.518;11.280;2023-07-09T05:16:28;19.00;81.00
76211;DHT22;65003;49.518;11.280;2023-07-09T05:18:54;19.10;80.70
76211;DHT22;65003;49.518;11.280;2023-07-09T05:21:21;19.30;80.20
76211;DHT22;65003;49.518;11.280;2023-07-09T05:23:48;19.40;79.60
76211;DHT22;65003;49.518;11.280;2023-07-09T05:26:15;19.60;79.10
76211;DHT22;65003;49.518;11.280;2023-07-09T05:28:42;19.90;78.30
76211;DHT22;65003;49.518;11.280;2023-07-09T05:31:08;20.00;76.70
76211;DHT22;65003;49.518;11.280;2023-07-09T05:33:35;20.20;76.30
76211;DHT22;65003;49.518;11.280;2023-07-09T05:36:03;20.50;75.30
76211;DHT22;65003;49.518;11.280;2023-07-09T05:38:30;20.60;74.60
76211;DHT22;65003;49.518;11.280;2023-07-09T05:41:01;20.80;74.60
76211;DHT22;65003;49.518;11.280;2023-07-09T05:43:27;21.00;73.80
76211;DHT22;65003;49.518;11.280;2023-07-09T05:45:54;21.30;73.00
76211;DHT22;65003;49.518;11.280;2023-07-09T05:48:20;21.60;71.60
76211;DHT22;65003;49.518;11.280;2023-07-09T05:50:48;21.80;71.00
76211;DHT22;65003;49.518;11.280;2023-07-09T05:53:14;22.10;69.10
76211;DHT22;65003;49.518;11.280;2023-07-09T05:55:41;22.30;68.50
76211;DHT22;65003;49.518;11.280;2023-07-09T05:58:07;22.70;68.30
76211;DHT22;65003;49.518;11.280;2023-07-09T06:00:34;22.80;65.80
76211;DHT22;65003;49.518;11.280;2023-07-09T06:03:00;22.80;65.70
76211;DHT22;65003;49.518;11.280;2023-07-09T06:05:27;23.00;65.00
76211;DHT22;65003;49.518;11.280;2023-07-09T06:07:54;23.30;64.20
76211;DHT22;65003;49.518;11.280;2023-07-09T06:10:20;23.70;63.00
76211;DHT22;65003;49.518;11.280;2023-07-09T06:12:47;23.90;61.70
76211;DHT22;65003;49.518;11.280;2023-07-09T06:15:13;24.40;61.10
76211;DHT22;65003;49.518;11.280;2023-07-09T06:17:40;24.90;58.50
76211;DHT22;65003;49.518;11.280;2023-07-09T06:20:07;25.50;58.10
76211;DHT22;65003;49.518;11.280;2023-07-09T06:25:01;26.40;54.70
76211;DHT22;65003;49.518;11.280;2023-07-09T06:27:28;26.90;54.20
76211;DHT22;65003;49.518;11.280;2023-07-09T06:29:54;27.40;53.30
76211;DHT22;65003;49.518;11.280;2023-07-09T06:32:21;27.80;51.10
76211;DHT22;65003;49.518;11.280;2023-07-09T06:34:47;28.30;50.50
76211;DHT22;65003;49.518;11.280;2023-07-09T06:37:14;28.70;49.40
76211;DHT22;65003;49.518;11.280;2023-07-09T06:39:41;29.00;50.00
76211;DHT22;65003;49.518;11.280;2023-07-09T06:42:07;29.40;47.70
76211;DHT22;65003;49.518;11.280;2023-07-09T06:44:34;29.80;50.70
76211;DHT22;65003;49.518;11.280;2023-07-09T06:47:01;30.20;46.00
76211;DHT22;65003;49.518;11.280;2023-07-09T06:49:27;30.90;43.20
76211;DHT22;65003;49.518;11.280;2023-07-09T06:51:54;31.10;43.10
76211;DHT22;65003;49.518;11.280;2023-07-09T06:54:21;31.60;41.60
76211;DHT22;65003;49.518;11.280;2023-07-09T06:56:48;32.00;41.80
76211;DHT22;65003;49.518;11.280;2023-07-09T06:59:14;33.00;39.50
76211;DHT22;65003;49.518;11.280;2023-07-09T07:01:41;33.00;40.00
76211;DHT22;65003;49.518;11.280;2023-07-09T07:04:07;33.90;38.30
76211;DHT22;65003;49.518;11.280;2023-07-09T07:06:34;34.70;35.70
76211;DHT22;65003;49.518;11.280;2023-07-09T07:09:01;35.70;34.10
76211;DHT22;65003;49.518;11.280;2023-07-09T07:11:27;35.80;34.20
76211;DHT22;65003;49.518;11.280;2023-07-09T07:13:54;36.90;31.90
76211;DHT22;65003;49.518;11.280;2023-07-09T07:16:20;37.40;31.10
76211;DHT22;65003;49.518;11.280;2023-07-09T07:18:47;37.50;31.60
76211;DHT22;65003;49.518;11.280;2023-07-09T07:21:14;38.10;30.50
76211;DHT22;65003;49.518;11.280;2023-07-09T07:23:40;38.50;30.10
76211;DHT22;65003;49.518;11.280;2023-07-09T07:26:07;38.60;29.80
76211;DHT22;65003;49.518;11.280;2023-07-09T07:28:34;38.80;29.80
76211;DHT22;65003;49.518;11.280;2023-07-09T07:31:04;39.50;28.70
76211;DHT22;65003;49.518;11.280;2023-07-09T07:33:29;39.50;29.10
76211;DHT22;65003;49.518;11.280;2023-07-09T07:35:56;40.00;28.80
76211;DHT22;65003;49.518;11.280;2023-07-09T07:38:22;40.30;28.30
76211;DHT22;65003;49.518;11.280;2023-07-09T07:40:49;40.90;37.20
76211;DHT22;65003;49.518;11.280;2023-07-09T07:43:15;41.30;38.60
76211;DHT22;65003;49.518;11.280;2023-07-09T07:45:43;41.60;27.30
76211;DHT22;65003;49.518;11.280;2023-07-09T07:48:09;41.90;27.10
76211;DHT22;65003;49.518;11.280;2023-07-09T07:50:35;42.10;27.10
76211;DHT22;65003;49.518;11.280;2023-07-09T07:53:02;42.60;26.60
76211;DHT22;65003;49.518;11.280;2023-07-09T07:55:29;42.60;26.10
76211;DHT22;65003;49.518;11.280;2023-07-09T07:57:55;42.40;26.90
76211;DHT22;65003;49.518;11.280;2023-07-09T08:00:22;42.50;26.90
76211;DHT22;65003;49.518;11.280;2023-07-09T08:02:49;42.40;26.60
76211;DHT22;65003;49.518;11.280;2023-07-09T08:05:15;42.20;26.80
76211;DHT22;65003;49.518;11.280;2023-07-09T08:07:42;43.00;26.20
76211;DHT22;65003;49.518;11.280;2023-07-09T08:10:09;43.20;26.30
76211;DHT22;65003;49.518;11.280;2023-07-09T08:12:35;43.60;25.20
76211;DHT22;65003;49.518;11.280;2023-07-09T08:15:02;43.70;25.40
76211;DHT22;65003;49.518;11.280;2023-07-09T08:17:28;43.90;24.90
76211;DHT22;65003;49.518;11.280;2023-07-09T08:19:55;44.10;25.20
76211;DHT22;65003;49.518;11.280;2023-07-09T08:22:22;44.20;25.30
76211;DHT22;65003;49.518;11.280;2023-07-09T08:24:49;43.60;25.50
76211;DHT22;65003;49.518;11.280;2023-07-09T08:27:16;43.50;25.40
76211;DHT22;65003;49.518;11.280;2023-07-09T08:29:42;43.70;25.90
76211;DHT22;65003;49.518;11.280;2023-07-09T08:32:09;43.70;25.10
76211;DHT22;65003;49.518;11.280;2023-07-09T08:34:36;43.90;25.00
76211;DHT22;65003;49.518;11.280;2023-07-09T08:37:02;43.90;24.80
76211;DHT22;65003;49.518;11.280;2023-07-09T08:39:29;44.00;25.40
76211;DHT22;65003;49.518;11.280;2023-07-09T08:42:03;44.00;25.60
76211;DHT22;65003;49.518;11.280;2023-07-09T08:44:40;44.00;25.10
76211;DHT22;65003;49.518;11.280;2023-07-09T08:47:06;42.80;25.10
76211;DHT22;65003;49.518;11.280;2023-07-09T08:49:54;42.40;26.00
76211;DHT22;65003;49.518;11.280;2023-07-09T08:54:57;42.40;25.60
76211;DHT22;65003;49.518;11.280;2023-07-09T08:57:25;42.80;25.00
76211;DHT22;65003;49.518;11.280;2023-07-09T08:59:53;42.90;25.20
76211;DHT22;65003;49.518;11.280;2023-07-09T09:04:45;42.70;24.30
76211;DHT22;65003;49.518;11.280;2023-07-09T09:07:28;42.70;25.00
76211;DHT22;65003;49.518;11.280;2023-07-09T09:09:56;42.60;24.50
76211;DHT22;65003;49.518;11.280;2023-07-09T09:12:21;42.50;24.50
76211;DHT22;65003;49.518;11.280;2023-07-09T09:14:51;42.30;24.40
76211;DHT22;65003;49.518;11.280;2023-07-09T09:17:14;42.00;25.20
76211;DHT22;65003;49.518;11.280;2023-07-09T09:19:47;41.90;25.70
76211;DHT22;65003;49.518;11.280;2023-07-09T09:22:13;41.90;25.60
76211;DHT22;65003;49.518;11.280;2023-07-09T09:24:43;42.00;25.70
76211;DHT22;65003;49.518;11.280;2023-07-09T09:27:07;42.20;25.10
76211;DHT22;65003;49.518;11.280;2023-07-09T09:29:34;42.20;24.40
76211;DHT22;65003;49.518;11.280;2023-07-09T09:32:04;42.10;24.30
76211;DHT22;65003;49.518;11.280;2023-07-09T09:34:28;42.10;23.70
76211;DHT22;65003;49.518;11.280;2023-07-09T09:36:54;41.90;24.10
76211;DHT22;65003;49.518;11.280;2023-07-09T09:39:20;41.60;24.10
76211;DHT22;65003;49.518;11.280;2023-07-09T09:41:47;41.50;25.10
76211;DHT22;65003;49.518;11.280;2023-07-09T09:44:18;41.40;25.30
76211;DHT22;65003;49.518;11.280;2023-07-09T09:46:44;41.30;25.20
76211;DHT22;65003;49.518;11.280;2023-07-09T09:49:10;41.20;24.50
76211;DHT22;65003;49.518;11.280;2023-07-09T09:51:39;41.20;24.50
76211;DHT22;65003;49.518;11.280;2023-07-09T09:54:06;41.00;24.10
76211;DHT22;65003;49.518;11.280;2023-07-09T09:56:33;40.80;24.20
76211;DHT22;65003;49.518;11.280;2023-07-09T09:58:57;40.90;24.40
76211;DHT22;65003;49.518;11.280;2023-07-09T10:01:29;40.90;24.60
76211;DHT22;65003;49.518;11.280;2023-07-09T10:03:55;40.90;25.30
76211;DHT22;65003;49.518;11.280;2023-07-09T10:06:26;40.90;24.70
76211;DHT22;65003;49.518;11.280;2023-07-09T10:08:53;40.40;24.80
76211;DHT22;65003;49.518;11.280;2023-07-09T10:11:19;41.00;24.60
76211;DHT22;65003;49.518;11.280;2023-07-09T10:13:45;41.00;24.30
76211;DHT22;65003;49.518;11.280;2023-07-09T10:16:34;40.50;24.80
76211;DHT22;65003;49.518;11.280;2023-07-09T10:20:09;40.40;23.90
76211;DHT22;65003;49.518;11.280;2023-07-09T10:21:46;40.30;24.70
76211;DHT22;65003;49.518;11.280;2023-07-09T10:26:59;40.30;24.00
76211;DHT22;65003;49.518;11.280;2023-07-09T10:29:31;40.20;24.60
76211;DHT22;65003;49.518;11.280;2023-07-09T10:32:02;40.40;24.70
76211;DHT22;65003;49.518;11.280;2023-07-09T10:34:32;40.60;24.60
76211;DHT22;65003;49.518;11.280;2023-07-09T10:37:20;40.60;23.80
76211;DHT22;65003;49.518;11.280;2023-07-09T10:39:46;40.60;24.60
76211;DHT22;65003;49.518;11.280;2023-07-09T10:44:39;40.40;25.30
76211;DHT22;65003;49.518;11.280;2023-07-09T10:47:11;40.40;25.60
76211;DHT22;65003;49.518;11.280;2023-07-09T10:49:34;40.40;24.30
76211;DHT22;65003;49.518;11.280;2023-07-09T10:52:05;40.40;23.80
76211;DHT22;65003;49.518;11.280;2023-07-09T10:54:37;40.30;23.60
76211;DHT22;65003;49.518;11.280;2023-07-09T10:57:13;40.20;23.90
76211;DHT22;65003;49.518;11.280;2023-07-09T10:59:41;40.20;23.80
76211;DHT22;65003;49.518;11.280;2023-07-09T11:02:16;40.10;24.50
76211;DHT22;65003;49.518;11.280;2023-07-09T11:04:45;40.00;24.80
76211;DHT22;65003;49.518;11.280;2023-07-09T11:07:11;39.90;24.20
76211;DHT22;65003;49.518;11.280;2023-07-09T11:09:39;39.30;23.70
76211;DHT22;65003;49.518;11.280;2023-07-09T11:12:06;39.00;23.90
76211;DHT22;65003;49.518;11.280;2023-07-09T11:14:49;38.90;24.20
76211;DHT22;65003;49.518;11.280;2023-07-09T11:17:16;38.70;23.90
76211;DHT22;65003;49.518;11.280;2023-07-09T11:19:43;38.40;24.20
76211;DHT22;65003;49.518;11.280;2023-07-09T11:22:20;38.20;25.40
76211;DHT22;65003;49.518;11.280;2023-07-09T11:24:48;38.10;24.60
76211;DHT22;65003;49.518;11.280;2023-07-09T11:27:16;38.20;24.40
76211;DHT22;65003;49.518;11.280;2023-07-09T11:29:47;38.00;24.50
76211;DHT22;65003;49.518;11.280;2023-07-09T11:32:17;37.80;24.70
76211;DHT22;65003;49.518;11.280;2023-07-09T11:34:44;37.70;24.90
76211;DHT22;65003;49.518;11.280;2023-07-09T11:37:08;37.60;25.40
76211;DHT22;65003;49.518;11.280;2023-07-09T11:39:51;37.50;25.20
76211;DHT22;65003;49.518;11.280;2023-07-09T11:42:31;37.40;25.60
76211;DHT22;65003;49.518;11.280;2023-07-09T11:45:06;37.40;25.60
76211;DHT22;65003;49.518;11.280;2023-07-09T11:47:34;37.30;24.90
76211;DHT22;65003;49.518;11.280;2023-07-09T11:50:00;37.20;25.30
76211;DHT22;65003;49.518;11.280;2023-07-09T11:52:38;37.20;25.00
76211;DHT22;65003;49.518;11.280;2023-07-09T11:55:19;37.20;25.80
76211;DHT22;65003;49.518;11.280;2023-07-09T11:57:46;37.30;26.20
76211;DHT22;65003;49.518;11.280;2023-07-09T12:00:09;37.30;25.80
76211;DHT22;65003;49.518;11.280;2023-07-09T12:02:36;37.10;26.20
76211;DHT22;65003;49.518;11.280;2023-07-09T12:05:04;36.90;26.10
76211;DHT22;65003;49.518;11.280;2023-07-09T12:07:30;36.70;25.50
76211;DHT22;65003;49.518;11.280;2023-07-09T12:09:57;36.50;25.50
76211;DHT22;65003;49.518;11.280;2023-07-09T12:12:25;36.40;26.40
76211;DHT22;65003;49.518;11.280;2023-07-09T12:14:50;36.30;26.90
76211;DHT22;65003;49.518;11.280;2023-07-09T12:17:17;36.50;27.30
76211;DHT22;65003;49.518;11.280;2023-07-09T12:19:43;36.60;27.60
76211;DHT22;65003;49.518;11.280;2023-07-09T12:22:14;36.70;28.60
76211;DHT22;65003;49.518;11.280;2023-07-09T12:24:38;36.60;28.20
76211;DHT22;65003;49.518;11.280;2023-07-09T12:27:04;36.50;27.70
76211;DHT22;65003;49.518;11.280;2023-07-09T12:29:30;36.30;27.60
76211;DHT22;65003;49.518;11.280;2023-07-09T12:31:57;36.20;27.30
76211;DHT22;65003;49.518;11.280;2023-07-09T12:34:24;36.10;27.90
76211;DHT22;65003;49.518;11.280;2023-07-09T12:36:51;36.20;26.70
76211;DHT22;65003;49.518;11.280;2023-07-09T12:39:18;36.10;27.60
76211;DHT22;65003;49.518;11.280;2023-07-09T12:41:44;36.00;27.50
76211;DHT22;65003;49.518;11.280;2023-07-09T12:44:15;35.90;28.10
76211;DHT22;65003;49.518;11.280;2023-07-09T12:46:41;36.00;27.70
76211;DHT22;65003;49.518;11.280;2023-07-09T12:49:07;36.20;28.20
76211;DHT22;65003;49.518;11.280;2023-07-09T12:51:35;36.50;27.90
76211;DHT22;65003;49.518;11.280;2023-07-09T12:54:03;36.50;27.70
76211;DHT22;65003;49.518;11.280;2023-07-09T12:56:29;36.70;27.60
76211;DHT22;65003;49.518;11.280;2023-07-09T12:58:56;36.60;26.70
76211;DHT22;65003;49.518;11.280;2023-07-09T13:01:22;36.50;25.90
76211;DHT22;65003;49.518;11.280;2023-07-09T13:03:53;36.40;26.90
76211;DHT22;65003;49.518;11.280;2023-07-09T13:06:34;36.20;28.20
76211;DHT22;65003;49.518;11.280;2023-07-09T13:09:01;35.90;26.40
76211;DHT22;65003;49.518;11.280;2023-07-09T13:11:36;35.80;27.90
76211;DHT22;65003;49.518;11.280;2023-07-09T13:14:03;35.50;28.90
76211;DHT22;65003;49.518;11.280;2023-07-09T13:16:29;35.30;28.30
76211;DHT22;65003;49.518;11.280;2023-07-09T13:18:55;35.10;34.30
76211;DHT22;65003;49.518;11.280;2023-07-09T13:21:22;35.10;35.30
76211;DHT22;65003;49.518;11.280;2023-07-09T13:23:48;35.10;35.20
76211;DHT22;65003;49.518;11.280;2023-07-09T13:26:15;35.20;35.10
76211;DHT22;65003;49.518;11.280;2023-07-09T13:28:42;35.30;34.60
76211;DHT22;65003;49.518;11.280;2023-07-09T13:31:11;35.40;32.20
76211;DHT22;65003;49.518;11.280;2023-07-09T13:33:37;35.50;32.90
76211;DHT22;65003;49.518;11.280;2023-07-09T13:36:03;35.60;34.40
76211;DHT22;65003;49.518;11.280;2023-07-09T13:38:30;35.70;32.00
76211;DHT22;65003;49.518;11.280;2023-07-09T13:40:57;35.70;32.10
76211;DHT22;65003;49.518;11.280;2023-07-09T13:43:39;35.70;28.90
76211;DHT22;65003;49.518;11.280;2023-07-09T13:46:06;35.70;29.80
76211;DHT22;65003;49.518;11.280;2023-07-09T13:48:31;35.80;30.00
76211;DHT22;65003;49.518;11.280;2023-07-09T13:50:58;35.80;30.90
76211;DHT22;65003;49.518;11.280;2023-07-09T13:53:25;35.80;31.60
76211;DHT22;65003;49.518;11.280;2023-07-09T13:55:52;35.70;29.80
76211;DHT22;65003;49.518;11.280;2023-07-09T13:58:18;36.00;30.00
76211;DHT22;65003;49.518;11.280;2023-07-09T14:00:46;36.00;30.30
76211;DHT22;65003;49.518;11.280;2023-07-09T14:03:18;36.00;30.10
76211;DHT22;65003;49.518;11.280;2023-07-09T14:05:45;35.90;29.80
76211;DHT22;65003;49.518;11.280;2023-07-09T14:08:11;35.80;30.00
76211;DHT22;65003;49.518;11.280;2023-07-09T14:10:38;35.70;30.60
76211;DHT22;65003;49.518;11.280;2023-07-09T14:13:05;35.70;30.00
76211;DHT22;65003;49.518;11.280;2023-07-09T14:15:31;35.60;30.00
76211;DHT22;65003;49.518;11.280;2023-07-09T14:17:58;35.40;30.20
76211;DHT22;65003;49.518;11.280;2023-07-09T14:20:24;35.30;31.40
76211;DHT22;65003;49.518;11.280;2023-07-09T14:22:51;35.30;30.90
76211;DHT22;65003;49.518;11.280;2023-07-09T14:25:21;35.20;31.00
76211;DHT22;65003;49.518;11.280;2023-07-09T14:27:48;35.20;32.90
76211;DHT22;65003;49.518;11.280;2023-07-09T14:30:14;35.10;35.10
76211;DHT22;65003;49.518;11.280;2023-07-09T14:32:40;35.10;41.50
76211;DHT22;65003;49.518;11.280;2023-07-09T14:35:11;34.90;27.00
76211;DHT22;65003;49.518;11.280;2023-07-09T14:37:36;34.80;27.30
76211;DHT22;65003;49.518;11.280;2023-07-09T14:40:03;34.70;27.20
76211;DHT22;65003;49.518;11.280;2023-07-09T14:42:29;34.50;27.60
76211;DHT22;65003;49.518;11.280;2023-07-09T14:44:56;34.30;27.50
76211;DHT22;65003;49.518;11.280;2023-07-09T14:47:23;34.10;27.60
76211;DHT22;65003;49.518;11.280;2023-07-09T14:49:50;33.80;27.40
76211;DHT22;65003;49.518;11.280;2023-07-09T14:52:18;33.70;27.40
76211;DHT22;65003;49.518;11.280;2023-07-09T14:54:44;33.60;27.70
76211;DHT22;65003;49.518;11.280;2023-07-09T14:57:17;33.60;27.90
76211;DHT22;65003;49.518;11.280;2023-07-09T14:59:43;32.70;27.90
76211;DHT22;65003;49.518;11.280;2023-07-09T15:04:57;33.80;28.00
76211;DHT22;65003;49.518;11.280;2023-07-09T15:07:24;33.90;28.10
76211;DHT22;65003;49.518;11.280;2023-07-09T15:09:50;33.90;28.20
76211;DHT22;65003;49.518;11.280;2023-07-09T15:12:18;33.90;27.90
76211;DHT22;65003;49.518;11.280;2023-07-09T15:14:43;33.90;27.60
76211;DHT22;65003;49.518;11.280;2023-07-09T15:17:10;33.80;28.60
76211;DHT22;65003;49.518;11.280;2023-07-09T15:19:37;33.70;28.20
76211;DHT22;65003;49.518;11.280;2023-07-09T15:22:03;33.60;28.30
76211;DHT22;65003;49.518;11.280;2023-07-09T15:24:32;33.50;28.30
76211;DHT22;65003;49.518;11.280;2023-07-09T15:26:58;33.40;28.60
76211;DHT22;65003;49.518;11.280;2023-07-09T15:29:24;33.50;32.30
76211;DHT22;65003;49.518;11.280;2023-07-09T15:31:51;33.50;33.60
76211;DHT22;65003;49.518;11.280;2023-07-09T15:34:17;33.40;28.00